Time;durP1;ratioP1;P1;durP2;ratioP2;P2;SDS_P1;SDS_P2;PMS_P1;PMS_P2;Temp;Humidity;BMP_temperature;BMP_pressure;BME280_temperature;BME280_humidity;BME280_pressure;Samples;Min_cycle;Max_cycle;Signal;HPM_P1;HPM_P2
2021/12/20 00:00:52;;;;;;;11.77;3.42;;;;;;;-144.19;100.00;78747.03;5011265;28;20061;-86
2021/12/20 00:03:19;;;;;;;;;;;;;;;-144.19;100.00;78729.31;5010480;28;20058;-83
2021/12/20 00:05:45;;;;;;;12.48;3.35;;;;;;;-144.19;100.00;78731.28;5011182;28;20004;-85
2021/12/20 00:08:12;;;;;;;14.83;3.53;;;;;;;-144.19;100.00;78752.94;5010821;28;20061;-86
2021/12/20 00:10:38;;;;;;;19.58;4.47;;;;;;;-144.19;100.00;78760.81;5010275;28;20054;-85
2021/12/20 00:13:05;;;;;;;19.25;3.63;;;;;;;-144.19;100.00;78749.00;5010874;28;20268;-83
2021/12/20 00:15:31;;;;;;;27.42;4.35;;;;;;;-144.19;100.00;78749.00;5008953;28;20053;-86
2021/12/20 00:17:58;;;;;;;18.27;3.53;;;;;;;-144.19;100.00;78743.09;5008598;28;20054;-84
2021/12/20 00:20:24;;;;;;;23.63;4.63;;;;;;;-144.19;100.00;78741.13;5010429;28;20367;-84
2021/12/20 00:22:51;;;;;;;12.53;2.67;;;;;;;-144.19;100.00;78780.50;5010211;28;20058;-85
2021/12/20 00:25:18;;;;;;;16.13;3.47;;;;;;;-144.19;100.00;78782.47;5008886;28;20045;-83
2021/12/20 00:27:44;;;;;;;15.48;4.22;;;;;;;-144.19;100.00;78776.56;5008735;28;20293;-85
2021/12/20 00:30:11;;;;;;;25.50;4.70;;;;;;;-144.19;100.00;78776.56;5009955;28;20049;-83
2021/12/20 00:32:38;;;;;;;;;;;;;;;-144.19;100.00;78768.69;5006781;28;20670;-86
2021/12/20 00:35:06;;;;;;;14.70;2.50;;;;;;;-144.19;100.00;78794.31;5009284;28;19925;-84
2021/12/20 00:40:21;;;;;;;12.10;3.17;;;;;;;-144.19;100.00;78821.88;5009429;28;20058;-85
2021/12/20 00:42:49;;;;;;;17.67;3.72;;;;;;;-144.19;100.00;78835.66;5007781;28;20443;-83
2021/12/20 00:45:17;;;;;;;15.63;3.15;;;;;;;-144.19;100.00;78839.59;5010826;28;20050;-86
2021/12/20 00:47:44;;;;;;;12.02;2.88;;;;;;;-144.19;100.00;78853.38;5010095;28;20050;-86
2021/12/20 00:50:13;;;;;;;10.07;2.67;;;;;;;-144.19;100.00;78851.41;5008623;28;20643;-86
2021/12/20 00:52:41;;;;;;;13.02;3.78;;;;;;;-144.19;100.00;78855.34;5008773;28;20054;-85
2021/12/20 00:55:09;;;;;;;11.13;2.67;;;;;;;-144.19;100.00;78869.13;5009271;28;20054;-85
2021/12/20 00:57:35;;;;;;;;;;;;;;;-144.19;100.00;78863.22;5010146;28;20072;-86
2021/12/20 01:00:06;;;;;;;11.07;2.10;;;;;;;-144.19;100.00;78859.28;5009611;28;19921;-85
2021/12/20 01:02:32;;;;;;;14.07;2.80;;;;;;;-144.19;100.00;78853.38;5009098;28;20057;-84
2021/12/20 01:04:59;;;;;;;17.77;4.20;;;;;;;-144.19;100.00;78849.44;5008542;28;20406;-84
2021/12/20 01:07:25;;;;;;;11.37;3.30;;;;;;;-144.19;100.00;78861.25;5009426;28;20060;-85
2021/12/20 01:09:53;;;;;;;14.37;3.57;;;;;;;-144.19;100.00;78898.69;5008524;28;20659;-85
2021/12/20 01:12:20;;;;;;;9.77;3.17;;;;;;;-144.19;100.00;78910.50;4972872;28;1035285;-85
2021/12/20 01:14:47;;;;;;;;;;;;;;;-144.19;100.00;78902.63;5013676;28;20056;-86
2021/12/20 01:17:14;;;;;;;20.98;4.75;;;;;;;-144.19;100.00;78890.81;5014203;28;19921;-86
2021/12/20 01:19:40;;;;;;;12.77;3.00;;;;;;;-144.19;100.00;78918.38;5013036;28;20096;-86
2021/12/20 01:22:07;;;;;;;13.07;3.00;;;;;;;-144.19;100.00;78944.00;5014557;28;20050;-85
2021/12/20 01:24:33;;;;;;;17.80;5.00;;;;;;;-144.19;100.00;78938.06;5012705;28;20492;-84
2021/12/20 01:27:00;;;;;;;10.70;3.90;;;;;;;-144.19;100.00;78934.13;5012921;28;20062;-85
2021/12/20 01:29:26;;;;;;;18.50;4.28;;;;;;;-144.19;100.00;78912.47;5012220;28;20056;-87
2021/12/20 01:31:53;;;;;;;19.67;4.00;;;;;;;-144.19;100.00;78879.00;5012617;28;20388;-86
2021/12/20 01:34:19;;;;;;;24.77;4.00;;;;;;;-144.19;100.00;78875.06;5012871;28;20041;-85
2021/12/20 01:36:45;;;;;;;14.70;3.43;;;;;;;-144.19;100.00;78867.16;5013520;28;20057;-84
2021/12/20 01:39:12;;;;;;;19.03;3.80;;;;;;;-144.19;100.00;78849.44;5012928;28;20064;-86
2021/12/20 01:41:43;;;;;;;19.13;3.47;;;;;;;-144.19;100.00;78853.38;5013887;28;20057;-85
2021/12/20 01:44:12;;;;;;;14.70;3.47;;;;;;;-144.19;100.00;78847.47;5013793;28;20057;-83
2021/12/20 01:46:39;;;;;;;22.20;3.85;;;;;;;-144.19;100.00;78839.59;5011389;28;20050;-87
2021/12/20 01:49:10;;;;;;;17.70;3.75;;;;;;;-144.19;100.00;78849.44;5013827;28;20065;-86
2021/12/20 01:54:15;;;;;;;20.25;4.15;;;;;;;-144.19;100.00;78849.44;5014100;28;20061;-84
2021/12/20 01:56:43;;;;;;;13.65;2.63;;;;;;;-144.19;100.00;78886.88;5011954;28;20045;-86
2021/12/20 01:59:11;;;;;;;19.92;4.05;;;;;;;-144.19;100.00;78857.31;5013622;28;20105;-85
2021/12/20 02:01:38;;;;;;;18.63;3.30;;;;;;;-144.19;100.00;78845.50;5013683;28;20053;-87
2021/12/20 02:04:07;;;;;;;15.85;3.67;;;;;;;-144.19;100.00;78849.44;5011306;28;20050;-84
2021/12/20 02:06:38;;;;;;;22.75;3.70;;;;;;;-144.19;100.00;78859.28;5011789;28;20416;-84
2021/12/20 02:09:10;;;;;;;14.63;3.22;;;;;;;-144.19;100.00;78865.19;5013325;28;20056;-86
2021/12/20 02:11:39;;;;;;;17.73;3.47;;;;;;;-144.19;100.00;78855.34;5011970;28;20058;-83
2021/12/20 02:14:07;;;;;;;15.40;3.25;;;;;;;-144.19;100.00;78863.22;5013108;28;20056;-85
2021/12/20 02:16:34;;;;;;;19.98;3.83;;;;;;;-144.19;100.00;78859.28;5011255;28;20042;-85
2021/12/20 02:19:03;;;;;;;19.33;3.78;;;;;;;-144.19;100.00;78859.28;5013332;28;20054;-83
2021/12/20 02:21:31;;;;;;;16.55;3.20;;;;;;;-144.19;100.00;78863.22;5011617;28;20144;-83
2021/12/20 02:23:58;;;;;;;12.88;3.10;;;;;;;-144.19;100.00;78896.72;5012033;28;20054;-86
2021/12/20 02:26:25;;;;;;;16.95;3.17;;;;;;;-144.19;100.00;78898.69;5011607;28;20492;-86
2021/12/20 02:28:57;;;;;;;19.23;5.05;;;;;;;-144.19;100.00;78890.81;5011939;28;20057;-85
2021/12/20 02:37:00;;;;;;;32.97;5.35;;;;;;;-144.19;100.00;78902.63;4992377;28;20057;-85
2021/12/20 02:39:26;;;;;;;19.00;4.22;;;;;;;-144.19;100.00;78906.56;4992812;28;20056;-86
2021/12/20 02:41:53;;;;;;;14.20;3.23;;;;;;;-144.19;100.00;78910.50;4992952;28;20068;-86
2021/12/20 02:44:22;;;;;;;16.58;3.72;;;;;;;-144.19;100.00;78945.94;4992578;28;20053;-82
2021/12/20 02:47:03;;;;;;;14.73;3.53;;;;;;;-144.19;100.00;78961.72;4991227;28;20046;-86
2021/12/20 02:49:29;;;;;;;14.10;3.38;;;;;;;-144.19;100.00;78961.72;4991834;28;20065;-84
2021/12/20 02:52:05;;;;;;;13.13;3.65;;;;;;;-144.19;100.00;78961.72;4992431;28;20059;-84
2021/12/20 02:54:33;;;;;;;10.32;3.22;;;;;;;-144.19;100.00;78953.84;4996430;28;20541;-85
2021/12/20 02:57:00;;;;;;;;;;;;;;;-144.19;100.00;78961.72;5011376;28;20050;-84
2021/12/20 02:59:27;;;;;;;19.67;3.72;;;;;;;-144.19;100.00;78965.66;5011232;28;19921;-85
2021/12/20 03:02:01;;;;;;;16.67;3.45;;;;;;;-144.19;100.00;78969.59;5011068;28;20057;-87
2021/12/20 03:04:27;;;;;;;21.23;4.13;;;;;;;-144.19;100.00;78973.53;5010626;28;20042;-86
2021/12/20 03:06:57;;;;;;;11.38;3.03;;;;;;;-144.19;100.00;78997.16;5011795;28;20061;-87
2021/12/20 03:09:30;;;;;;;15.95;3.80;;;;;;;-144.19;100.00;79003.06;5011977;28;20145;-84
2021/12/20 03:11:59;;;;;;;18.83;3.20;;;;;;;-144.19;100.00;79012.91;5011951;28;20053;-84
2021/12/20 03:14:32;;;;;;;12.93;2.97;;;;;;;-144.19;100.00;79008.97;5010635;28;20053;-86
2021/12/20 03:16:59;;;;;;;14.52;3.33;;;;;;;-144.19;100.00;79036.56;5011549;28;20042;-83
2021/12/20 03:19:27;;;;;;;10.40;3.45;;;;;;;-144.19;100.00;79028.69;5012151;28;20046;-86
2021/12/20 03:21:54;;;;;;;8.57;3.20;;;;;;;-144.19;100.00;79036.56;5011025;28;20050;-87
2021/12/20 03:24:20;;;;;;;;;;;;;;;-144.19;100.00;79046.41;5012358;28;20054;-85
2021/12/20 03:26:46;;;;;;;11.80;2.83;;;;;;;-144.19;100.00;79046.41;5011570;28;19943;-86
2021/12/20 03:29:13;;;;;;;10.73;3.17;;;;;;;-144.19;100.00;79056.25;5010190;28;20057;-82
2021/12/20 03:31:40;;;;;;;15.07;3.13;;;;;;;-144.19;100.00;79060.19;5011278;28;20050;-84
2021/12/20 03:34:07;;;;;;;13.32;3.10;;;;;;;-144.19;100.00;79046.41;5010615;28;20295;-84
2021/12/20 03:36:34;;;;;;;;;;;;;;;-144.19;100.00;79052.31;5009619;28;20488;-86
2021/12/20 03:39:01;;;;;;;20.67;4.20;;;;;;;-144.19;100.00;79036.56;5007013;28;20526;-86
2021/12/20 03:41:28;;;;;;;12.88;3.45;;;;;;;-144.19;100.00;79032.63;5010349;28;20486;-84
2021/12/20 03:43:54;;;;;;;17.77;3.60;;;;;;;-144.19;100.00;79038.53;5009734;28;20054;-85
2021/12/20 03:46:21;;;;;;;18.35;4.32;;;;;;;-144.19;100.00;79036.56;5010749;28;20655;-85
2021/12/20 03:48:48;;;;;;;13.85;3.47;;;;;;;-144.19;100.00;79040.50;5010866;28;20050;-84
2021/12/20 03:51:14;;;;;;;14.00;4.07;;;;;;;-144.19;100.00;79050.34;5043168;28;20061;-85
2021/12/20 03:53:41;;;;;;;13.15;3.38;;;;;;;-144.19;100.00;79095.66;5010671;28;20061;-86
2021/12/20 03:56:07;;;;;;;8.63;3.22;;;;;;;-144.19;100.00;79115.34;4998383;28;20053;-84
2021/12/20 03:58:34;;;;;;;15.57;2.67;;;;;;;-144.19;100.00;79115.34;4990807;28;20054;-84
2021/12/20 04:01:04;;;;;;;16.42;3.17;;;;;;;-144.19;100.00;79127.16;4991765;28;20058;-87
2021/12/20 04:03:33;;;;;;;17.27;2.80;;;;;;;-144.19;100.00;79135.03;5005714;28;20152;-85
2021/12/20 04:06:00;;;;;;;9.77;2.88;;;;;;;-144.19;100.00;79131.09;5009249;28;20042;-84
2021/12/20 04:08:26;;;;;;;13.85;3.65;;;;;;;-144.19;100.00;79133.06;5010314;28;20416;-85
2021/12/20 04:10:53;;;;;;;13.25;4.85;;;;;;;-144.19;100.00;79125.19;5010134;28;20134;-85
2021/12/20 04:13:19;;;;;;;12.00;4.23;;;;;;;-144.19;100.00;79137.00;5009592;28;20050;-86
2021/12/20 04:15:46;;;;;;;17.45;4.82;;;;;;;-144.19;100.00;79144.88;5009700;28;20794;-86
2021/12/20 04:18:13;;;;;;;16.20;4.22;;;;;;;-144.19;100.00;79154.72;5010789;28;20058;-84
2021/12/20 04:20:40;;;;;;;15.95;4.40;;;;;;;-144.19;100.00;79170.50;5010541;28;20468;-86
2021/12/20 04:23:07;;;;;;;12.52;4.05;;;;;;;-144.19;100.00;79178.38;5010157;28;20050;-85
2021/12/20 04:25:33;;;;;;;14.73;4.70;;;;;;;-144.19;100.00;79166.56;5011091;28;20049;-86
2021/12/20 04:27:59;;;;;;;15.38;5.10;;;;;;;-144.19;100.00;79174.44;5010527;28;20069;-84
2021/12/20 04:30:29;;;;;;;12.45;4.70;;;;;;;-144.19;100.00;79168.53;5011073;28;20508;-85
2021/12/20 04:32:55;;;;;;;11.88;4.72;;;;;;;-144.19;100.00;79174.44;5009313;28;20042;-83
2021/12/20 04:35:22;;;;;;;20.15;5.70;;;;;;;-144.19;100.00;79176.41;5010983;28;20104;-86
2021/12/20 04:37:50;;;;;;;20.23;5.00;;;;;;;-144.19;100.00;79198.06;5008644;28;20054;-85
2021/12/20 04:40:21;;;;;;;14.85;5.25;;;;;;;-144.19;100.00;79202.00;5009556;28;20049;-85
2021/12/20 04:42:56;;;;;;;15.10;5.43;;;;;;;-144.19;100.00;79198.06;5009897;28;20050;-89
2021/12/20 04:45:25;;;;;;;16.75;4.95;;;;;;;-144.19;100.00;79176.41;5010833;28;20050;-86
2021/12/20 04:47:51;;;;;;;20.88;6.40;;;;;;;-144.19;100.00;79172.47;5010566;28;20060;-85
2021/12/20 04:50:18;;;;;;;20.08;5.80;;;;;;;-144.19;100.00;79154.72;5014754;28;20532;-86
2021/12/20 04:52:44;;;;;;;16.55;4.97;;;;;;;-144.19;100.00;79176.41;5012064;28;20072;-84
2021/12/20 04:55:12;;;;;;;14.00;4.78;;;;;;;-144.19;100.00;79202.00;5016451;28;20046;-87
2021/12/20 04:57:40;;;;;;;15.07;4.43;;;;;;;-144.19;100.00;79194.13;5015312;28;20519;-83
2021/12/20 05:00:11;;;;;;;15.45;4.20;;;;;;;-144.19;100.00;79203.97;5013885;28;20447;-84
2021/12/20 05:02:37;;;;;;;13.35;4.65;;;;;;;-144.19;100.00;79231.56;5013471;28;20073;-84
2021/12/20 05:05:05;;;;;;;16.80;3.72;;;;;;;-144.19;100.00;79217.75;5014422;28;20046;-84
2021/12/20 05:07:31;;;;;;;11.48;3.50;;;;;;;-144.19;100.00;79202.00;5012447;28;20507;-84
2021/12/20 05:10:01;;;;;;;15.10;5.07;;;;;;;-144.19;100.00;79213.81;5014113;28;20531;-85
2021/12/20 05:12:28;;;;;;;18.67;4.97;;;;;;;-144.19;100.00;79217.75;5013655;28;20072;-85
2021/12/20 05:14:54;;;;;;;20.58;5.07;;;;;;;-144.19;100.00;79194.13;5014209;28;20049;-86
2021/12/20 05:17:21;;;;;;;22.92;4.70;;;;;;;-144.19;100.00;79186.25;5012794;28;20100;-86
2021/12/20 05:19:47;;;;;;;17.75;4.15;;;;;;;-144.19;100.00;79186.25;5014347;28;20056;-85
2021/12/20 05:22:14;;;;;;;27.52;5.82;;;;;;;-144.19;100.00;79178.38;5014530;28;20061;-82
2021/12/20 05:24:40;;;;;;;17.42;4.68;;;;;;;-144.19;100.00;79194.13;5013126;28;20508;-85
2021/12/20 05:27:07;;;;;;;24.47;6.07;;;;;;;-144.19;100.00;79198.06;5012704;28;20069;-89
2021/12/20 05:29:33;;;;;;;30.42;6.22;;;;;;;-144.19;100.00;79178.38;5014849;28;20285;-85
2021/12/20 05:32:02;;;;;;;40.17;7.97;;;;;;;-144.19;100.00;79174.44;5012866;28;20674;-86
2021/12/20 05:34:29;;;;;;;37.05;7.47;;;;;;;-144.19;100.00;79146.84;5012707;28;20054;-86
2021/12/20 05:36:55;;;;;;;32.08;6.15;;;;;;;-144.19;100.00;79146.84;5013067;28;20060;-87
2021/12/20 05:39:22;;;;;;;30.08;7.75;;;;;;;-144.19;100.00;79154.72;5013247;28;20542;-86
2021/12/20 05:41:48;;;;;;;32.60;6.40;;;;;;;-144.19;100.00;79148.81;5014189;28;20046;-84
2021/12/20 05:44:15;;;;;;;44.63;7.63;;;;;;;-144.19;100.00;79150.78;5013307;28;20068;-85
2021/12/20 05:46:41;;;;;;;48.93;8.83;;;;;;;-144.19;100.00;79142.91;5012172;28;20050;-87
2021/12/20 05:49:08;;;;;;;27.85;7.03;;;;;;;-144.19;100.00;79123.22;5012980;28;20288;-86
2021/12/20 05:51:34;;;;;;;23.95;5.55;;;;;;;-144.19;100.00;79135.03;5014039;28;20052;-87
2021/12/20 05:54:00;;;;;;;32.33;6.93;;;;;;;-144.19;100.00;79135.03;5013002;28;20050;-85
2021/12/20 05:56:27;;;;;;;20.10;5.40;;;;;;;-144.19;100.00;79127.16;5013630;28;20280;-85
2021/12/20 05:58:53;;;;;;;26.45;6.78;;;;;;;-144.19;100.00;79129.13;5013425;28;20053;-85
2021/12/20 06:01:19;;;;;;;19.80;5.30;;;;;;;-144.19;100.00;79146.84;5013736;28;20056;-85
2021/12/20 06:03:46;;;;;;;18.55;5.38;;;;;;;-144.19;100.00;79162.63;5015993;28;20056;-87
2021/12/20 06:06:13;;;;;;;23.20;6.40;;;;;;;-144.19;100.00;79174.44;5016500;28;20398;-87
2021/12/20 06:08:39;;;;;;;20.02;4.75;;;;;;;-144.19;100.00;79170.50;5016293;28;20046;-84
2021/12/20 06:11:05;;;;;;;15.40;5.00;;;;;;;-144.19;100.00;79186.25;5016532;28;20496;-83
2021/12/20 06:13:32;;;;;;;13.10;5.40;;;;;;;-144.19;100.00;79196.09;5015421;28;20304;-85
2021/12/20 06:15:58;;;;;;;10.48;3.30;;;;;;;-144.19;100.00;79192.16;5015525;28;20060;-85
2021/12/20 06:18:24;;;;;;;10.00;3.53;;;;;;;-144.19;100.00;79192.16;5014995;28;20058;-87
2021/12/20 06:20:51;;;;;;;6.65;2.65;;;;;;;-144.19;100.00;79194.13;5014888;28;20288;-85
2021/12/20 06:23:17;;;;;;;11.43;3.45;;;;;;;-144.19;100.00;79190.19;5012070;28;20451;-83
2021/12/20 06:25:44;;;;;;;7.67;3.00;;;;;;;-144.19;100.00;79190.19;5013022;28;20056;-86
2021/12/20 06:28:10;;;;;;;6.03;3.53;;;;;;;-144.19;100.00;79209.88;5012214;28;20667;-86
2021/12/20 06:30:37;;;;;;;6.43;3.53;;;;;;;-144.19;100.00;79215.78;5012610;28;20069;-84
2021/12/20 06:33:03;;;;;;;15.80;4.32;;;;;;;-144.19;100.00;79205.94;5012304;28;20048;-86
2021/12/20 06:35:33;;;;;;;18.38;4.50;;;;;;;-144.19;100.00;79241.41;5016386;28;20062;-87
2021/12/20 06:38:02;;;;;;;5.28;3.10;;;;;;;-144.19;100.00;79243.38;5012755;28;20145;-84
2021/12/20 06:40:31;;;;;;;12.00;4.45;;;;;;;-144.19;100.00;79225.66;5013744;28;20058;-84
2021/12/20 06:43:01;;;;;;;10.02;3.83;;;;;;;-144.19;100.00;79231.56;5011689;28;20436;-83
2021/12/20 06:45:29;;;;;;;10.27;4.38;;;;;;;-144.19;100.00;79217.75;5012251;28;20078;-84
2021/12/20 06:47:56;;;;;;;9.35;4.13;;;;;;;-144.19;100.00;79217.75;5012248;28;20045;-86
2021/12/20 06:50:22;;;;;;;22.65;5.57;;;;;;;-144.19;100.00;79229.59;5012493;28;20104;-84
2021/12/20 06:52:49;;;;;;;6.13;3.67;;;;;;;-144.19;100.00;79231.56;5011562;28;20054;-84
2021/12/20 06:55:15;;;;;;;15.57;3.85;;;;;;;-144.19;100.00;79241.41;5012315;28;20288;-86
2021/12/20 06:57:42;;;;;;;42.42;6.22;;;;;;;-144.19;100.00;79237.47;5011482;28;20049;-86
2021/12/20 07:00:09;;;;;;;;;;;;;;;-144.19;100.00;79251.25;5013515;28;20112;-83
2021/12/20 07:02:35;;;;;;;61.45;6.13;;;;;;;-144.19;100.00;79241.41;5011145;28;19921;-84
2021/12/20 07:05:04;;;;;;;5.97;3.97;;;;;;;-144.19;100.00;79267.00;5010891;28;20054;-86
2021/12/20 07:07:31;;;;;;;54.85;7.93;;;;;;;-144.19;100.00;79265.03;5010359;28;20057;-85
2021/12/20 07:09:57;;;;;;;32.95;5.88;;;;;;;-144.19;100.00;79272.91;5009716;28;20054;-83
2021/12/20 07:12:24;;;;;;;17.60;5.72;;;;;;;-144.19;100.00;79284.75;5009959;28;20518;-84
2021/12/20 07:14:51;;;;;;;8.82;5.30;;;;;;;-144.19;100.00;79296.56;5009047;28;20515;-86
2021/12/20 07:17:18;;;;;;;17.65;5.07;;;;;;;-144.19;100.00;79294.59;5009928;28;20046;-84
2021/12/20 07:19:45;;;;;;;13.77;5.82;;;;;;;-144.19;100.00;79308.38;5011165;28;20064;-84
2021/12/20 07:22:11;;;;;;;17.20;5.38;;;;;;;-144.19;100.00;79300.50;5011502;28;20226;-86
2021/12/20 07:24:38;;;;;;;11.20;4.90;;;;;;;-144.19;100.00;79328.06;5012266;28;20060;-83
2021/12/20 07:27:10;;;;;;;6.78;4.25;;;;;;;-144.19;100.00;79343.81;5010022;28;20050;-85
2021/12/20 07:29:38;;;;;;;8.10;4.47;;;;;;;-144.19;100.00;79347.78;5009602;28;20041;-85
2021/12/20 07:32:05;;;;;;;18.40;4.93;;;;;;;-144.19;100.00;79349.75;5011942;28;20056;-87
2021/12/20 07:34:31;;;;;;;;;;;;;;;-144.19;100.00;79343.81;5010812;28;20069;-83
2021/12/20 07:36:58;;;;;;;6.68;3.78;;;;;;;-144.19;100.00;79355.66;5009787;28;19928;-83
2021/12/20 07:39:24;;;;;;;12.40;4.63;;;;;;;-144.19;100.00;79351.72;5010166;28;20049;-85
2021/12/20 07:41:51;;;;;;;9.20;4.25;;;;;;;-144.19;100.00;79377.31;5012748;28;20045;-83
2021/12/20 07:44:18;;;;;;;12.80;5.15;;;;;;;-144.19;100.00;79363.53;5012214;28;20137;-83
2021/12/20 07:46:45;;;;;;;8.38;5.05;;;;;;;-144.19;100.00;79359.59;5011431;28;20057;-84
2021/12/20 07:49:11;;;;;;;10.73;4.90;;;;;;;-144.19;100.00;79359.59;5012003;28;20109;-87
2021/12/20 07:51:38;;;;;;;9.25;4.43;;;;;;;-144.19;100.00;79363.53;5011227;28;20049;-85
2021/12/20 07:54:04;;;;;;;16.67;5.43;;;;;;;-144.19;100.00;79359.59;5011400;28;20454;-87
2021/12/20 07:56:30;;;;;;;11.55;6.40;;;;;;;-144.19;100.00;79343.81;5010884;28;20046;-83
2021/12/20 07:58:57;;;;;;;13.52;6.22;;;;;;;-144.19;100.00;79369.44;5011957;28;20053;-83
2021/12/20 08:01:24;;;;;;;11.57;5.90;;;;;;;-144.19;100.00;79393.06;5010795;28;20050;-86
2021/12/20 08:03:50;;;;;;;8.98;5.50;;;;;;;-144.19;100.00;79387.16;5011624;28;20050;-83
2021/12/20 08:06:17;;;;;;;7.53;4.47;;;;;;;-144.19;100.00;79379.28;5010800;28;20092;-84
2021/12/20 08:08:44;;;;;;;8.07;5.28;;;;;;;-144.19;100.00;79375.34;5010951;28;20054;-85
2021/12/20 08:11:10;;;;;;;9.48;5.38;;;;;;;-144.19;100.00;79387.16;5011885;28;20064;-85
2021/12/20 08:13:44;;;;;;;10.88;7.00;;;;;;;-144.19;100.00;79385.19;5010053;28;20053;-84
2021/12/20 08:16:15;;;;;;;9.73;6.82;;;;;;;-144.19;100.00;79395.03;5009421;28;20049;-85
2021/12/20 08:18:43;;;;;;;10.50;6.00;;;;;;;-144.19;100.00;79395.03;5007672;28;20057;-84
2021/12/20 08:21:10;;;;;;;13.80;7.63;;;;;;;-144.19;100.00;79422.63;5009314;28;20084;-85
2021/12/20 08:23:37;;;;;;;15.95;8.38;;;;;;;-144.19;100.00;79393.06;5010104;28;20054;-86
2021/12/20 08:26:04;;;;;;;13.82;8.27;;;;;;;-144.19;100.00;79383.22;5010248;28;20062;-85
2021/12/20 08:28:31;;;;;;;15.35;6.63;;;;;;;-144.19;100.00;79387.16;5010154;28;20061;-84
2021/12/20 08:30:57;;;;;;;12.43;6.65;;;;;;;-144.19;100.00;79398.97;5009964;28;20071;-84
2021/12/20 08:33:23;;;;;;;11.00;5.75;;;;;;;-144.19;100.00;79406.88;5010879;28;20526;-83
2021/12/20 08:35:50;;;;;;;12.30;5.65;;;;;;;-144.19;100.00;79426.56;5008396;28;20081;-83
2021/12/20 08:38:17;;;;;;;12.95;6.03;;;;;;;-144.19;100.00;79410.81;5010349;28;20046;-85
2021/12/20 08:40:44;;;;;;;17.23;6.82;;;;;;;-144.19;100.00;79418.69;5010725;28;20515;-86
2021/12/20 08:43:11;;;;;;;21.25;8.30;;;;;;;-144.19;100.00;79410.81;5010195;28;20061;-85
2021/12/20 08:45:37;;;;;;;16.48;7.80;;;;;;;-144.19;100.00;79395.03;5009882;28;20054;-84
2021/12/20 08:48:04;;;;;;;13.60;5.88;;;;;;;-144.19;100.00;79400.94;5007993;28;20053;-84
2021/12/20 08:50:30;;;;;;;11.07;5.65;;;;;;;-144.19;100.00;79395.03;5011452;28;20053;-86
2021/12/20 08:52:57;;;;;;;12.60;6.50;;;;;;;-144.19;100.00;79389.13;5009182;28;20053;-85
2021/12/20 08:55:24;;;;;;;9.10;5.38;;;;;;;-144.19;100.00;79400.94;5010168;28;20422;-84
2021/12/20 08:57:51;;;;;;;8.05;4.97;;;;;;;-144.19;100.00;79422.63;5010560;28;20065;-84
2021/12/20 09:00:22;;;;;;;11.10;4.80;;;;;;;-144.19;100.00;79412.78;5010392;28;20056;-84
2021/12/20 09:02:49;;;;;;;8.80;4.65;;;;;;;-144.19;100.00;79412.78;5009381;28;20080;-86
2021/12/20 09:05:16;;;;;;;;;;;;;;;-144.19;100.00;79422.63;5011995;28;20089;-86
2021/12/20 09:07:43;;;;;;;10.25;5.22;;;;;;;-144.19;100.00;79406.88;5009354;28;19925;-84
2021/12/20 09:10:12;;;;;;;11.00;6.15;;;;;;;-144.19;100.00;79398.97;5009081;28;20050;-86
2021/12/20 09:12:40;;;;;;;9.50;6.03;;;;;;;-144.19;100.00;79406.88;5008407;28;20042;-86
2021/12/20 09:15:08;;;;;;;12.27;6.95;;;;;;;-144.19;100.00;79391.09;5009470;28;20468;-85
2021/12/20 09:17:35;;;;;;;12.68;6.78;;;;;;;-144.19;100.00;79406.88;5008650;28;20046;-86
2021/12/20 09:20:02;;;;;;;10.13;6.25;;;;;;;-144.19;100.00;79408.84;5010914;28;20528;-86
2021/12/20 09:22:30;;;;;;;;;;;;;;;-144.19;100.00;79408.84;5009827;28;20500;-84
2021/12/20 09:24:56;;;;;;;9.57;6.05;;;;;;;-144.19;100.00;79400.94;5010572;28;20387;-87
2021/12/20 09:27:23;;;;;;;9.50;6.28;;;;;;;-144.19;100.00;79395.03;5008534;28;20088;-87
2021/12/20 09:29:49;;;;;;;9.95;5.50;;;;;;;-144.19;100.00;79391.09;5009405;28;20056;-84
2021/12/20 09:32:16;;;;;;;8.80;5.82;;;;;;;-144.19;100.00;79389.13;5010057;28;20054;-84
2021/12/20 09:34:43;;;;;;;;;;;;;;;-144.19;100.00;79383.22;5010900;28;20046;-84
2021/12/20 09:37:09;;;;;;;9.05;5.55;;;;;;;-144.19;100.00;79369.44;5010452;28;20379;-86
2021/12/20 09:39:38;;;;;;;12.80;6.55;;;;;;;-144.19;100.00;79363.53;5012850;28;20058;-85
2021/12/20 09:42:08;;;;;;;11.75;6.78;;;;;;;-144.19;100.00;79359.59;5012706;28;20046;-85
2021/12/20 09:44:35;;;;;;;16.50;7.40;;;;;;;-144.19;100.00;79343.81;5012824;28;20050;-85
2021/12/20 09:47:02;;;;;;;10.65;6.60;;;;;;;-144.19;100.00;79339.88;5011948;28;20417;-85
2021/12/20 09:49:30;;;;;;;11.77;6.70;;;;;;;-144.19;100.00;79359.59;5013147;28;20092;-85
2021/12/20 09:51:58;;;;;;;9.75;6.00;;;;;;;-144.19;100.00;79343.81;5012261;28;20054;-84
2021/12/20 09:54:26;;;;;;;12.52;6.72;;;;;;;-144.19;100.00;79332.00;5012805;28;20116;-87
2021/12/20 09:56:54;;;;;;;9.00;6.63;;;;;;;-144.19;100.00;79324.13;4997863;28;20054;-84
2021/12/20 09:59:24;;;;;;;11.63;6.55;;;;;;;-144.19;100.00;79328.06;5009898;28;20145;-83
2021/12/20 10:01:51;;;;;;;10.82;5.97;;;;;;;-144.19;100.00;79328.06;5012945;28;20061;-85
2021/12/20 10:04:18;;;;;;;12.05;6.72;;;;;;;-144.19;100.00;79304.44;5012639;28;20049;-84
2021/12/20 10:06:49;;;;;;;11.93;6.13;;;;;;;-144.19;100.00;79304.44;5012091;28;20431;-86
2021/12/20 10:09:16;;;;;;;12.00;6.45;;;;;;;-144.19;100.00;79312.31;5012500;28;20427;-83
2021/12/20 10:11:43;;;;;;;9.32;6.05;;;;;;;-144.19;100.00;79308.38;5013546;28;20057;-87
2021/12/20 10:14:12;;;;;;;11.88;8.30;;;;;;;-144.19;100.00;79304.44;5012094;28;20488;-84
2021/12/20 10:16:41;;;;;;;9.15;6.47;;;;;;;-144.19;100.00;79286.72;4998916;28;20064;-84
2021/12/20 10:19:28;;;;;;;11.52;7.28;;;;;;;-144.19;100.00;79276.84;5012153;28;20050;-82
2021/12/20 10:21:57;;;;;;;12.18;6.65;;;;;;;-144.19;100.00;79253.22;5013188;28;20054;-84
2021/12/20 10:24:36;;;;;;;12.00;7.07;;;;;;;-144.19;100.00;79138.97;5012032;28;20057;-82
2021/12/20 10:27:03;;;;;;;10.73;6.78;;;;;;;-144.19;100.00;79064.13;5011507;28;20046;-86
2021/12/20 10:29:30;;;;;;;10.68;6.68;;;;;;;-144.19;100.00;78981.41;5011890;28;20069;-84
2021/12/20 10:31:57;;;;;;;10.13;7.07;;;;;;;-144.19;100.00;78880.97;5011571;28;20443;-85
2021/12/20 10:34:32;;;;;;;11.77;6.43;;;;;;;-144.19;100.00;78823.84;5010920;28;20700;-83
2021/12/20 10:37:01;;;;;;;10.32;7.03;;;;;;;-144.19;100.00;78691.88;4991232;28;20489;-83
2021/12/20 10:39:38;;;;;;;8.85;6.13;;;;;;;-144.19;100.00;78695.81;4992268;28;20046;-85
2021/12/20 10:42:14;;;;;;;6.93;5.00;;;;;;;-144.19;100.00;78725.38;5008985;28;20054;-84
2021/12/20 10:44:41;;;;;;;6.38;4.30;;;;;;;-144.19;100.00;78599.31;5012023;28;20296;-82
2021/12/20 10:47:07;;;;;;;9.85;5.57;;;;;;;-144.19;100.00;78634.78;5008904;28;20065;-81
2021/12/20 10:49:34;;;;;;;9.68;5.65;;;;;;;-144.19;100.00;78552.06;5009398;28;20050;-82
2021/12/20 10:52:00;;;;;;;10.80;5.77;;;;;;;-144.19;100.00;78445.72;5008397;28;20671;-82
2021/12/20 10:54:31;;;;;;;7.30;4.83;;;;;;;-144.19;100.00;78508.72;5009596;28;20046;-85
2021/12/20 10:57:02;;;;;;;8.15;4.82;;;;;;;-144.19;99.51;78613.09;5010575;28;20122;-84
2021/12/20 10:59:36;;;;;;;10.77;4.97;;;;;;;-144.19;100.00;78492.97;5012438;28;20508;-83
2021/12/20 11:04:42;;;;;;;9.77;4.25;;;;;;;-144.19;100.00;78364.97;5012485;28;20062;-86
2021/12/20 11:09:44;;;;;;;9.15;4.35;;;;;;;-144.19;93.91;78355.13;5012410;28;20511;-84
2021/12/20 11:12:20;;;;;;;8.02;5.38;;;;;;;-144.19;96.92;78355.13;5011071;28;20053;-84
2021/12/20 11:14:49;;;;;;;8.93;5.65;;;;;;;-144.19;90.18;78366.94;5011788;28;20046;-84
2021/12/20 11:17:19;;;;;;;9.32;5.82;;;;;;;-144.19;88.74;78197.59;5010479;28;20046;-82
2021/12/20 11:19:53;;;;;;;10.00;5.50;;;;;;;-144.19;86.93;78248.78;5010988;28;20124;-83
2021/12/20 11:22:24;;;;;;;9.75;4.97;;;;;;;-144.19;92.03;78311.81;5007852;28;20519;-83
2021/12/20 11:24:53;;;;;;;9.55;6.30;;;;;;;-144.19;93.27;78386.63;5011843;28;20050;-85